Metar z połowy godziny Komunikat METAR ze strony awiacja.imgw.pl Metar G30 EPWR METAR EPWR 190230Z VRB01KT CAVOK 13/11 Q1020 =